createdAt,value
2022-09-26T00:00:22.194Z,59.30
2022-09-26T00:03:24.930Z,54.16
2022-09-26T00:06:28.143Z,53.73
2022-09-26T00:09:30.821Z,53.07
2022-09-26T00:12:33.514Z,53.05
2022-09-26T00:15:37.493Z,52.50
2022-09-26T00:18:40.374Z,51.75
2022-09-26T00:21:43.091Z,51.89
2022-09-26T00:24:45.760Z,50.70
2022-09-26T00:27:48.469Z,51.77
2022-09-26T00:30:52.509Z,52.21
2022-09-26T00:33:55.310Z,51.06
2022-09-26T00:36:58.351Z,51.69
2022-09-26T00:40:01.059Z,51.71
2022-09-26T00:43:03.710Z,51.61
2022-09-26T00:46:13.138Z,52.12
2022-09-26T00:49:19.070Z,50.68
2022-09-26T00:52:25.100Z,51.63
2022-09-26T00:55:29.180Z,51.38
2022-09-26T00:58:33.232Z,50.64
2022-09-26T01:01:38.205Z,51.40
2022-09-26T01:04:42.610Z,51.41
2022-09-26T01:07:45.554Z,51.42
2022-09-26T01:10:50.163Z,51.25
2022-09-26T01:13:53.622Z,51.45
2022-09-26T01:16:57.735Z,51.75
2022-09-26T01:20:08.956Z,51.50
2022-09-26T01:23:33.906Z,51.26
2022-09-26T01:26:54.368Z,51.75
2022-09-26T01:30:04.823Z,51.10
2022-09-26T01:33:16.455Z,50.60
2022-09-26T01:36:33.985Z,50.96
2022-09-26T01:39:42.836Z,51.05
2022-09-26T01:42:51.126Z,51.56
2022-09-26T01:46:00.205Z,50.99
2022-09-26T01:49:09.843Z,50.81
2022-09-26T01:52:17.363Z,50.30
2022-09-26T01:55:22.720Z,51.08
2022-09-26T01:58:28.991Z,50.66
2022-09-26T02:01:36.209Z,50.83
2022-09-26T02:04:41.805Z,51.07
2022-09-26T02:07:48.419Z,51.30
2022-09-26T02:10:52.773Z,50.66
2022-09-26T02:13:57.502Z,50.66
2022-09-26T02:17:03.334Z,50.98
2022-09-26T02:20:07.607Z,50.31
2022-09-26T02:23:10.339Z,51.21
2022-09-26T02:26:12.989Z,50.67
2022-09-26T02:29:16.251Z,51.63
2022-09-26T02:32:22.161Z,51.04
2022-09-26T02:35:42.649Z,51.61
2022-09-26T02:38:45.435Z,51.00
2022-09-26T02:41:49.835Z,51.09
2022-09-26T02:45:06.867Z,50.78
2022-09-26T02:48:24.811Z,51.12
2022-09-26T02:51:35.793Z,50.91
2022-09-26T02:54:44.160Z,51.23
2022-09-26T02:57:50.266Z,51.45
2022-09-26T03:00:56.491Z,51.13
2022-09-26T03:04:03.535Z,51.80
2022-09-26T03:07:09.161Z,51.54
2022-09-26T03:10:12.914Z,51.14
2022-09-26T03:13:17.048Z,51.27
2022-09-26T03:16:21.177Z,51.39
2022-09-26T03:19:30.257Z,51.33
2022-09-26T03:22:33.508Z,50.56
2022-09-26T03:25:36.403Z,51.00
2022-09-26T03:28:39.473Z,50.92
2022-09-26T03:31:42.153Z,51.07
2022-09-26T03:34:46.329Z,51.25
2022-09-26T03:37:49.071Z,51.19
2022-09-26T03:40:52.742Z,50.74
2022-09-26T03:43:57.595Z,50.37
2022-09-26T03:47:00.269Z,50.77
2022-09-26T03:50:05.108Z,51.05
2022-09-26T03:53:07.768Z,50.13
2022-09-26T03:56:11.519Z,50.58
2022-09-26T03:59:14.272Z,50.12
2022-09-26T04:02:17.716Z,51.03
2022-09-26T04:05:21.875Z,49.84
2022-09-26T04:08:24.562Z,50.64
2022-09-26T04:11:27.280Z,50.47
2022-09-26T04:14:29.945Z,50.78
2022-09-26T04:17:32.643Z,50.22
2022-09-26T04:20:36.697Z,50.30
2022-09-26T04:23:40.589Z,50.50
2022-09-26T04:26:44.190Z,50.39
2022-09-26T04:29:47.024Z,50.40
2022-09-26T04:32:49.714Z,50.85
2022-09-26T04:35:53.936Z,50.65
2022-09-26T04:38:58.375Z,49.96
2022-09-26T04:42:01.076Z,50.69
2022-09-26T04:45:03.727Z,50.67
2022-09-26T04:48:06.465Z,50.66
2022-09-26T04:51:11.583Z,50.13
2022-09-26T04:54:14.327Z,50.37
2022-09-26T04:57:19.683Z,49.70
2022-09-26T05:00:23.385Z,50.15
2022-09-26T05:03:26.192Z,50.52
2022-09-26T05:06:30.279Z,51.00
2022-09-26T05:09:35.910Z,50.50
2022-09-26T05:12:39.673Z,49.59
2022-09-26T05:15:42.884Z,50.16
2022-09-26T05:18:45.606Z,50.75
2022-09-26T05:21:49.600Z,50.50
2022-09-26T05:25:09.838Z,50.03
2022-09-26T05:28:12.658Z,50.30
2022-09-26T05:31:15.582Z,49.98
2022-09-26T05:34:20.144Z,49.03
2022-09-26T05:37:24.684Z,49.24
2022-09-26T05:40:45.044Z,48.57
2022-09-26T05:43:48.185Z,49.02
2022-09-26T05:46:52.162Z,49.13
2022-09-26T05:49:54.896Z,47.99
2022-09-26T05:52:59.721Z,48.60
2022-09-26T05:56:02.631Z,48.97
2022-09-26T05:59:05.653Z,48.97
2022-09-26T06:02:08.992Z,49.39
2022-09-26T06:05:11.792Z,49.95
2022-09-26T06:08:17.320Z,51.19
2022-09-26T06:11:22.667Z,51.96
2022-09-26T06:14:26.631Z,52.24
2022-09-26T06:17:29.332Z,52.00
2022-09-26T06:20:33.133Z,50.96
2022-09-26T06:23:37.353Z,52.01
2022-09-26T06:26:40.037Z,51.04
2022-09-26T06:29:42.683Z,51.16
2022-09-26T06:32:46.419Z,50.55
2022-09-26T06:36:00.055Z,51.15
2022-09-26T06:39:04.179Z,50.69
2022-09-26T06:42:07.453Z,50.37
2022-09-26T06:45:11.364Z,49.94
2022-09-26T06:48:14.333Z,49.45
2022-09-26T06:51:16.963Z,50.26
2022-09-26T06:54:21.090Z,49.50
2022-09-26T06:57:24.052Z,49.77
2022-09-26T07:00:29.733Z,49.11
2022-09-26T07:03:32.436Z,49.32
2022-09-26T07:06:35.122Z,49.55
2022-09-26T07:09:41.115Z,48.14
2022-09-26T07:12:45.933Z,49.13
2022-09-26T07:15:48.781Z,48.49
2022-09-26T07:18:51.663Z,47.85
2022-09-26T07:21:55.304Z,48.36
2022-09-26T07:24:59.319Z,47.62
2022-09-26T07:28:02.728Z,48.52
2022-09-26T07:31:05.795Z,47.96
2022-09-26T07:34:09.024Z,47.58
2022-09-26T07:37:11.980Z,48.17
2022-09-26T07:40:16.742Z,47.89
2022-09-26T07:43:24.132Z,47.47
2022-09-26T07:46:56.048Z,47.61
2022-09-26T07:50:15.107Z,47.28
2022-09-26T07:53:19.126Z,46.99
2022-09-26T07:56:23.151Z,46.67
2022-09-26T07:59:27.183Z,46.94
2022-09-26T08:02:34.528Z,47.08
2022-09-26T08:05:37.444Z,46.36
2022-09-26T08:08:41.416Z,46.54
2022-09-26T08:11:45.685Z,47.34
2022-09-26T08:14:49.579Z,46.58
2022-09-26T08:17:52.734Z,46.45
2022-09-26T08:20:56.422Z,46.10
2022-09-26T08:23:59.227Z,45.87
2022-09-26T08:27:05.360Z,45.97
2022-09-26T08:30:10.578Z,45.41
2022-09-26T08:33:13.522Z,46.06
2022-09-26T08:36:17.140Z,45.64
2022-09-26T08:39:19.899Z,45.49
2022-09-26T08:42:32.938Z,45.40
2022-09-26T08:45:56.369Z,45.38
2022-09-26T08:49:14.910Z,45.35
2022-09-26T08:52:31.165Z,45.53
2022-09-26T08:55:35.957Z,44.76
2022-09-26T08:58:41.911Z,45.31
2022-09-26T09:01:46.820Z,44.38
2022-09-26T09:04:54.164Z,43.63
2022-09-26T09:07:58.196Z,44.66
2022-09-26T09:11:06.167Z,43.97
2022-09-26T09:14:18.895Z,42.86
2022-09-26T09:17:27.721Z,42.83
2022-09-26T09:20:36.584Z,43.19
2022-09-26T09:23:46.796Z,41.75
2022-09-26T09:30:38.596Z,42.25
2022-09-26T09:33:42.960Z,42.31
2022-09-26T09:36:49.851Z,42.52
2022-09-26T09:39:53.306Z,42.18
2022-09-26T09:42:59.093Z,41.70
2022-09-26T09:46:05.576Z,41.56
2022-09-26T09:49:17.686Z,43.67
2022-09-26T09:52:34.184Z,43.38
2022-09-26T09:55:39.764Z,42.07
2022-09-26T09:58:59.266Z,42.94
2022-09-26T10:02:13.280Z,43.99
2022-09-26T10:05:22.557Z,40.23
2022-09-26T10:08:31.343Z,39.32
2022-09-26T10:11:41.584Z,39.78
2022-09-26T10:14:47.291Z,45.35
2022-09-26T10:21:34.076Z,42.95
2022-09-26T10:24:40.849Z,44.92
2022-09-26T10:27:51.851Z,45.10
2022-09-26T10:30:56.558Z,42.10
2022-09-26T10:34:22.080Z,43.65
2022-09-26T10:37:25.798Z,42.19
2022-09-26T10:40:48.526Z,44.09
2022-09-26T10:43:53.356Z,44.50
2022-09-26T10:46:59.374Z,44.40
2022-09-26T10:50:07.633Z,43.12
2022-09-26T10:53:14.345Z,44.08
2022-09-26T10:56:21.553Z,43.17
2022-09-26T10:59:26.751Z,44.16
2022-09-26T11:02:29.568Z,42.89
2022-09-26T11:05:53.739Z,41.94
2022-09-26T11:09:03.019Z,43.76
2022-09-26T11:12:23.498Z,43.73
2022-09-26T11:15:26.233Z,42.80
2022-09-26T11:18:34.760Z,43.14
2022-09-26T11:21:41.943Z,42.28
2022-09-26T11:24:47.618Z,42.82
2022-09-26T11:27:52.489Z,41.28
2022-09-26T11:30:58.929Z,42.81
2022-09-26T11:34:04.314Z,42.39
2022-09-26T11:37:22.498Z,41.80
2022-09-26T11:40:33.459Z,41.46
2022-09-26T11:43:44.966Z,43.56
2022-09-26T11:46:55.135Z,43.40
2022-09-26T11:50:13.212Z,43.51
2022-09-26T11:53:43.066Z,44.07
2022-09-26T11:56:55.190Z,43.90
2022-09-26T12:00:07.358Z,43.34
2022-09-26T12:03:27.813Z,43.31
2022-09-26T12:06:33.405Z,42.10
2022-09-26T12:09:52.609Z,40.97
2022-09-26T12:13:03.351Z,41.82
2022-09-26T12:16:12.352Z,42.61
2022-09-26T12:19:21.706Z,41.28
2022-09-26T12:22:29.495Z,42.33
2022-09-26T12:25:39.646Z,41.38
2022-09-26T12:28:58.646Z,41.09
2022-09-26T12:32:14.825Z,42.54
2022-09-26T12:35:29.717Z,42.01
2022-09-26T12:38:43.289Z,42.29
2022-09-26T12:41:56.427Z,41.52
2022-09-26T12:45:18.262Z,42.63
2022-09-26T12:48:31.296Z,42.92
2022-09-26T12:51:42.065Z,42.70
2022-09-26T12:54:59.505Z,42.43
2022-09-26T12:58:16.855Z,42.27
2022-09-26T13:01:43.621Z,42.80
2022-09-26T13:05:17.615Z,43.15
2022-09-26T13:08:24.977Z,43.47
2022-09-26T13:11:32.859Z,42.43
2022-09-26T13:14:55.246Z,41.48
2022-09-26T13:18:02.355Z,41.82
2022-09-26T13:21:12.137Z,42.63
2022-09-26T13:24:18.728Z,42.59
2022-09-26T13:27:23.200Z,42.58
2022-09-26T13:30:29.347Z,43.17
2022-09-26T13:33:34.896Z,43.36
2022-09-26T13:36:42.335Z,42.88
2022-09-26T13:39:49.170Z,44.35
2022-09-26T13:43:00.742Z,42.91
2022-09-26T13:46:10.776Z,43.56
2022-09-26T13:49:25.167Z,43.58
2022-09-26T13:52:35.561Z,43.59
2022-09-26T13:55:38.329Z,43.33
2022-09-26T13:58:41.066Z,43.34
2022-09-26T14:01:58.711Z,43.64
2022-09-26T14:05:20.109Z,43.07
2022-09-26T14:08:51.271Z,43.40
2022-09-26T14:12:18.234Z,43.53
2022-09-26T14:15:22.798Z,44.45
2022-09-26T14:18:29.859Z,44.29
2022-09-26T14:21:58.857Z,44.55
2022-09-26T14:25:03.736Z,46.30
2022-09-26T14:28:10.445Z,46.88
2022-09-26T14:31:17.731Z,47.32
2022-09-26T14:34:22.946Z,47.66
2022-09-26T14:37:33.556Z,47.70
2022-09-26T14:40:38.023Z,47.96
2022-09-26T14:43:41.805Z,47.83
2022-09-26T14:46:47.255Z,47.71
2022-09-26T14:50:00.980Z,48.38
2022-09-26T14:53:11.559Z,48.73
2022-09-26T14:56:17.641Z,48.86
2022-09-26T14:59:44.005Z,48.88
2022-09-26T15:02:50.485Z,48.87
2022-09-26T15:05:53.352Z,49.88
2022-09-26T15:08:56.359Z,50.35
2022-09-26T15:12:00.978Z,50.30
2022-09-26T15:15:14.015Z,50.45
2022-09-26T15:18:21.091Z,50.79
2022-09-26T15:21:32.782Z,50.43
2022-09-26T15:24:36.937Z,50.45
2022-09-26T15:27:45.989Z,50.11
2022-09-26T15:30:50.567Z,50.33
2022-09-26T15:33:56.418Z,50.34
2022-09-26T15:36:59.988Z,50.29
2022-09-26T15:40:12.080Z,50.16
2022-09-26T15:43:21.491Z,50.36
2022-09-26T15:46:24.380Z,50.77
2022-09-26T15:49:28.586Z,50.80
2022-09-26T15:52:33.268Z,50.17
2022-09-26T15:55:38.805Z,50.66
2022-09-26T15:58:46.957Z,50.66
2022-09-26T16:01:50.022Z,50.68
2022-09-26T16:04:54.885Z,51.15
2022-09-26T16:07:58.806Z,51.14
2022-09-26T16:11:02.439Z,50.67
2022-09-26T16:14:08.608Z,50.84
2022-09-26T16:17:14.694Z,50.77
2022-09-26T16:20:25.449Z,51.56
2022-09-26T16:23:28.608Z,51.23
2022-09-26T16:26:32.414Z,50.13
2022-09-26T16:29:37.910Z,50.21
2022-09-26T16:32:40.694Z,50.24
2022-09-26T16:35:46.794Z,50.27
2022-09-26T16:38:53.964Z,49.50
2022-09-26T16:42:03.375Z,49.21
2022-09-26T16:45:14.726Z,51.77
2022-09-26T16:48:37.369Z,50.17
2022-09-26T16:51:41.654Z,50.42
2022-09-26T16:54:44.701Z,50.29
2022-09-26T16:57:51.915Z,50.74
2022-09-26T17:01:13.292Z,51.03
2022-09-26T17:04:17.837Z,50.88
2022-09-26T17:07:20.844Z,50.45
2022-09-26T17:10:25.798Z,50.79
2022-09-26T17:13:33.189Z,50.31
2022-09-26T17:16:37.342Z,50.39
2022-09-26T17:19:42.007Z,50.27
2022-09-26T17:22:45.044Z,50.31
2022-09-26T17:25:54.070Z,50.36
2022-09-26T17:28:59.391Z,50.43
2022-09-26T17:32:09.587Z,50.66
2022-09-26T17:35:14.738Z,50.98
2022-09-26T17:38:19.200Z,50.50
2022-09-26T17:41:25.446Z,49.86
2022-09-26T17:44:28.539Z,49.53
2022-09-26T17:47:37.776Z,49.62
2022-09-26T17:50:42.985Z,50.40
2022-09-26T17:53:51.074Z,50.42
2022-09-26T17:56:54.493Z,50.65
2022-09-26T17:59:58.661Z,50.20
2022-09-26T18:03:04.356Z,50.28
2022-09-26T18:06:12.563Z,50.10
2022-09-26T18:09:17.479Z,50.32
2022-09-26T18:12:24.035Z,50.37
2022-09-26T18:15:27.623Z,50.49
2022-09-26T18:18:36.868Z,50.28
2022-09-26T18:21:40.504Z,50.67
2022-09-26T18:24:45.441Z,50.25
2022-09-26T18:27:51.313Z,50.56
2022-09-26T18:30:58.309Z,50.13
2022-09-26T18:34:04.400Z,50.12
2022-09-26T18:37:07.207Z,50.08
2022-09-26T18:40:13.214Z,50.13
2022-09-26T18:43:20.978Z,49.93
2022-09-26T18:46:25.345Z,50.30
2022-09-26T18:49:31.710Z,50.46
2022-09-26T18:52:34.992Z,50.68
2022-09-26T18:55:57.781Z,50.19
2022-09-26T18:59:01.533Z,50.28
2022-09-26T19:02:06.178Z,49.88
2022-09-26T19:05:13.224Z,49.91
2022-09-26T19:08:28.077Z,50.14
2022-09-26T19:11:36.981Z,50.31
2022-09-26T19:14:40.235Z,50.88
2022-09-26T19:17:44.677Z,50.70
2022-09-26T19:20:49.984Z,50.91
2022-09-26T19:23:53.318Z,50.74
2022-09-26T19:26:59.102Z,50.71
2022-09-26T19:30:03.916Z,50.74
2022-09-26T19:33:06.763Z,50.88
2022-09-26T19:36:12.257Z,51.25
2022-09-26T19:39:16.432Z,51.26
2022-09-26T19:42:19.229Z,51.63
2022-09-26T19:45:25.013Z,51.62
2022-09-26T19:48:28.129Z,51.69
2022-09-26T19:51:37.849Z,52.50
2022-09-26T19:54:40.601Z,51.55
2022-09-26T19:57:45.727Z,51.18
2022-09-26T20:00:50.114Z,52.50
2022-09-26T20:03:53.414Z,52.24
2022-09-26T20:06:58.498Z,52.50
2022-09-26T20:10:02.284Z,51.81
2022-09-26T20:13:05.035Z,51.87
2022-09-26T20:16:10.259Z,51.96
2022-09-26T20:19:16.965Z,52.07
2022-09-26T20:22:21.996Z,51.96
2022-09-26T20:25:27.052Z,52.22
2022-09-26T20:28:30.284Z,52.11
2022-09-26T20:31:32.966Z,52.00
2022-09-26T20:34:35.735Z,52.29
2022-09-26T20:37:40.956Z,51.78
2022-09-26T20:40:43.943Z,51.85
2022-09-26T20:43:49.197Z,52.38
2022-09-26T20:46:53.562Z,52.49
2022-09-26T20:49:58.472Z,52.33
2022-09-26T20:53:02.551Z,52.38
2022-09-26T20:56:05.235Z,52.08
2022-09-26T20:59:08.553Z,51.90
2022-09-26T21:02:27.050Z,52.14
2022-09-26T21:05:29.767Z,52.39
2022-09-26T21:08:33.878Z,52.31
2022-09-26T21:11:36.581Z,52.38
2022-09-26T21:14:39.261Z,52.26
2022-09-26T21:17:42.857Z,52.29
2022-09-26T21:20:46.630Z,52.01
2022-09-26T21:23:50.837Z,52.61
2022-09-26T21:26:53.495Z,52.47
2022-09-26T21:29:56.163Z,52.39
2022-09-26T21:32:59.950Z,52.45
2022-09-26T21:36:02.844Z,52.06
2022-09-26T21:39:07.118Z,52.35
2022-09-26T21:42:09.749Z,52.49
2022-09-26T21:45:12.888Z,51.59
2022-09-26T21:48:16.160Z,51.66
2022-09-26T21:51:20.449Z,51.85
2022-09-26T21:54:26.641Z,52.20
2022-09-26T21:57:31.251Z,51.91
2022-09-26T22:00:34.045Z,52.29
2022-09-26T22:03:37.276Z,52.19
2022-09-26T22:06:40.018Z,51.55
2022-09-26T22:09:44.160Z,52.54
2022-09-26T22:12:47.053Z,51.85
2022-09-26T22:15:49.873Z,52.63
2022-09-26T22:18:52.547Z,51.47
2022-09-26T22:21:55.840Z,51.42
2022-09-26T22:25:03.913Z,51.54
2022-09-26T22:28:06.603Z,51.93
2022-09-26T22:31:09.457Z,51.79
2022-09-26T22:34:12.360Z,51.82
2022-09-26T22:37:15.088Z,52.01
2022-09-26T22:40:19.243Z,52.43
2022-09-26T22:43:21.950Z,51.82
2022-09-26T22:46:24.844Z,51.53
2022-09-26T22:49:27.572Z,51.65
2022-09-26T22:52:30.255Z,51.39
2022-09-26T22:55:34.316Z,51.72
2022-09-26T22:58:38.837Z,51.92
2022-09-26T23:01:41.589Z,51.83
2022-09-26T23:04:50.427Z,51.72
2022-09-26T23:07:53.947Z,51.91
2022-09-26T23:10:58.035Z,52.04
2022-09-26T23:14:00.725Z,52.38
2022-09-26T23:17:03.569Z,52.24
2022-09-26T23:20:06.936Z,52.10
2022-09-26T23:23:10.182Z,52.57
2022-09-26T23:26:16.997Z,52.30
2022-09-26T23:29:19.683Z,52.37
2022-09-26T23:32:22.358Z,52.28
2022-09-26T23:35:24.999Z,52.07
2022-09-26T23:38:27.916Z,52.29
2022-09-26T23:41:32.005Z,52.58
2022-09-26T23:44:35.003Z,52.63
2022-09-26T23:47:37.750Z,52.46
2022-09-26T23:50:40.399Z,52.29
2022-09-26T23:53:43.107Z,52.60
2022-09-26T23:56:47.126Z,52.78
2022-09-26T23:59:49.771Z,52.81
